createdAt,value
2018-12-30T00:01:59.201Z,100271.94
2018-12-30T00:04:29.313Z,100275.91
2018-12-30T00:06:58.923Z,100273.63
2018-12-30T00:09:28.337Z,100274.28
2018-12-30T00:11:58.110Z,100276.07
2018-12-30T00:14:27.579Z,100276.93
2018-12-30T00:16:57.015Z,100275.11
2018-12-30T00:19:26.775Z,100278.63
2018-12-30T00:21:56.218Z,100274.31
2018-12-30T00:24:26.555Z,100276.33
2018-12-30T00:26:56.019Z,100282.74
2018-12-30T00:29:25.400Z,100284.41
2018-12-30T00:31:54.844Z,100286.92
2018-12-30T00:34:24.623Z,100286.92
2018-12-30T00:36:54.058Z,100282.17
2018-12-30T00:39:23.455Z,100284.37
2018-12-30T00:41:53.158Z,100283.44
2018-12-30T00:44:22.635Z,100289.13
2018-12-30T00:46:52.076Z,100287.81
2018-12-30T00:49:21.671Z,100290.53
2018-12-30T00:51:51.106Z,100283.09
2018-12-30T00:54:20.645Z,100278.75
2018-12-30T00:56:50.367Z,100282.30
2018-12-30T00:59:19.840Z,100279.71
2018-12-30T01:01:49.278Z,100281.66
2018-12-30T01:04:19.209Z,100281.81
2018-12-30T01:06:48.678Z,100280.47
2018-12-30T01:09:18.079Z,100282.35
2018-12-30T01:11:47.839Z,100281.55
2018-12-30T01:14:17.324Z,100283.81
2018-12-30T01:16:47.133Z,100279.05
2018-12-30T01:19:16.570Z,100283.87
2018-12-30T01:21:46.022Z,100284.73
2018-12-30T01:24:15.454Z,100279.53
2018-12-30T01:26:44.959Z,100285.23
2018-12-30T01:29:14.455Z,100276.16
2018-12-30T01:31:43.887Z,100275.30
2018-12-30T01:34:13.580Z,100274.50
2018-12-30T01:36:43.035Z,100274.03
2018-12-30T01:39:12.523Z,100276.25
2018-12-30T01:41:42.194Z,100272.27
2018-12-30T01:44:11.672Z,100267.52
2018-12-30T01:46:41.154Z,100270.58
2018-12-30T01:49:11.022Z,100270.58
2018-12-30T01:51:40.458Z,100269.77
2018-12-30T01:54:10.141Z,100262.88
2018-12-30T01:56:39.645Z,100266.38
2018-12-30T01:59:09.495Z,100265.02
2018-12-30T02:01:38.980Z,100258.09
2018-12-30T02:04:08.485Z,100261.59
2018-12-30T02:06:37.935Z,100257.76
2018-12-30T02:09:08.103Z,100259.56
2018-12-30T02:11:37.840Z,100259.52
2018-12-30T02:14:08.501Z,100258.27
2018-12-30T02:16:37.952Z,100251.75
2018-12-30T02:19:08.058Z,100244.85
2018-12-30T02:21:41.245Z,100239.69
2018-12-30T02:24:08.865Z,100232.73
2018-12-30T02:26:38.611Z,100232.28
2018-12-30T02:29:07.984Z,100234.03
2018-12-30T02:31:37.430Z,100229.25
2018-12-30T02:34:07.246Z,100237.98
2018-12-30T02:36:36.701Z,100232.72
2018-12-30T02:39:07.488Z,100228.42
2018-12-30T02:41:38.279Z,100228.00
2018-12-30T02:44:08.068Z,100232.75
2018-12-30T02:46:37.640Z,100226.33
2018-12-30T02:49:07.160Z,100226.36
2018-12-30T02:51:36.544Z,100228.03
2018-12-30T02:54:06.121Z,100221.88
2018-12-30T02:56:35.951Z,100225.33
2018-12-30T02:59:05.451Z,100225.30
2018-12-30T03:01:34.853Z,100229.20
2018-12-30T03:04:04.585Z,100221.88
2018-12-30T03:06:34.081Z,100220.83
2018-12-30T03:09:05.351Z,100223.36
2018-12-30T03:11:35.158Z,100222.44
2018-12-30T03:14:04.557Z,100220.80
2018-12-30T03:16:34.428Z,100221.69
2018-12-30T03:19:04.287Z,100223.38
2018-12-30T03:21:33.695Z,100214.66
2018-12-30T03:24:03.214Z,100229.95
2018-12-30T03:26:32.888Z,100222.58
2018-12-30T03:29:02.264Z,100230.03
2018-12-30T03:31:31.764Z,100227.09
2018-12-30T03:34:01.560Z,100228.22
2018-12-30T03:36:30.948Z,100225.61
2018-12-30T03:39:00.349Z,100223.36
2018-12-30T03:41:30.241Z,100220.77
2018-12-30T03:43:59.727Z,100218.62
2018-12-30T03:46:29.224Z,100221.69
2018-12-30T03:48:58.856Z,100223.30
2018-12-30T03:51:28.363Z,100221.13
2018-12-30T03:53:57.872Z,100222.91
2018-12-30T03:56:27.580Z,100225.44
2018-12-30T03:58:56.999Z,100231.44
2018-12-30T04:01:26.476Z,100227.43
2018-12-30T04:03:56.212Z,100224.66
2018-12-30T04:06:25.699Z,100226.36
2018-12-30T04:08:55.189Z,100231.17
2018-12-30T04:11:24.921Z,100230.19
2018-12-30T04:13:54.773Z,100229.42
2018-12-30T04:16:24.285Z,100229.39
2018-12-30T04:18:54.052Z,100230.15
2018-12-30T04:21:23.446Z,100238.00
2018-12-30T04:23:52.856Z,100235.45
2018-12-30T04:26:22.671Z,100234.36
2018-12-30T04:28:52.167Z,100232.91
2018-12-30T04:31:21.553Z,100239.73
2018-12-30T04:33:51.216Z,100232.74
2018-12-30T04:36:20.695Z,100232.67
2018-12-30T04:38:50.177Z,100227.37
2018-12-30T04:41:19.639Z,100227.36
2018-12-30T04:43:49.198Z,100227.33
2018-12-30T04:46:18.673Z,100238.56
2018-12-30T04:48:48.104Z,100235.53
2018-12-30T04:51:17.606Z,100233.70
2018-12-30T04:53:47.108Z,100236.99
2018-12-30T04:56:16.542Z,100233.85
2018-12-30T04:58:45.967Z,100233.89
2018-12-30T05:01:15.470Z,100233.55
2018-12-30T05:03:45.008Z,100231.91
2018-12-30T05:06:14.377Z,100235.65
2018-12-30T05:08:43.759Z,100233.89
2018-12-30T05:11:13.581Z,100233.85
2018-12-30T05:13:43.075Z,100229.44
2018-12-30T05:16:13.168Z,100226.41
2018-12-30T05:18:42.638Z,100230.30
2018-12-30T05:21:12.146Z,100229.92
2018-12-30T05:23:41.535Z,100228.58
2018-12-30T05:26:11.073Z,100226.45
2018-12-30T05:28:40.577Z,100230.86
2018-12-30T05:31:10.092Z,100223.56
2018-12-30T05:33:39.836Z,100230.86
2018-12-30T05:36:09.358Z,100229.10
2018-12-30T05:38:38.836Z,100222.14
2018-12-30T05:41:08.450Z,100227.42
2018-12-30T05:43:37.916Z,100224.35
2018-12-30T05:46:07.427Z,100227.38
2018-12-30T05:48:37.869Z,100231.23
2018-12-30T05:51:07.251Z,100228.99
2018-12-30T05:53:36.659Z,100231.23
2018-12-30T05:56:06.496Z,100232.09
2018-12-30T05:58:36.073Z,100236.52
2018-12-30T06:01:05.586Z,100238.23
2018-12-30T06:03:35.543Z,100240.41
2018-12-30T06:06:05.030Z,100239.02
2018-12-30T06:08:34.536Z,100244.78
2018-12-30T06:11:04.259Z,100253.09
2018-12-30T06:13:33.673Z,100252.12
2018-12-30T06:16:03.190Z,100248.71
2018-12-30T06:18:33.064Z,100250.81
2018-12-30T06:21:02.493Z,100261.70
2018-12-30T06:23:31.950Z,100263.42
2018-12-30T06:26:01.513Z,100262.07
2018-12-30T06:28:31.097Z,100262.45
2018-12-30T06:31:00.569Z,100261.03
2018-12-30T06:33:30.327Z,100265.37
2018-12-30T06:35:59.832Z,100268.36
2018-12-30T06:38:29.335Z,100275.33
2018-12-30T06:40:58.798Z,100273.38
2018-12-30T06:43:28.310Z,100269.73
2018-12-30T06:45:57.740Z,100272.36
2018-12-30T06:48:27.453Z,100272.77
2018-12-30T06:50:56.947Z,100268.72
2018-12-30T06:53:26.484Z,100274.26
2018-12-30T06:55:55.936Z,100271.59
2018-12-30T06:58:25.591Z,100271.19
2018-12-30T07:00:55.081Z,100269.84
2018-12-30T07:03:24.891Z,100274.05
2018-12-30T07:05:55.818Z,100276.23
2018-12-30T07:08:25.308Z,100279.10
2018-12-30T07:10:55.192Z,100272.50
2018-12-30T07:13:24.791Z,100264.68
2018-12-30T07:15:54.338Z,100265.86
2018-12-30T07:18:24.017Z,100262.66
2018-12-30T07:20:54.165Z,100266.97
2018-12-30T07:23:23.545Z,100260.28
2018-12-30T07:25:53.311Z,100262.50
2018-12-30T07:28:22.790Z,100265.08
2018-12-30T07:30:52.180Z,100262.73
2018-12-30T07:33:23.113Z,100256.04
2018-12-30T07:35:52.727Z,100263.78
2018-12-30T07:38:28.035Z,100255.42
2018-12-30T07:40:59.704Z,100255.65
2018-12-30T07:43:29.122Z,100253.43
2018-12-30T07:45:58.668Z,100252.97
2018-12-30T07:48:28.180Z,100255.36
2018-12-30T07:50:57.595Z,100252.23
2018-12-30T07:53:27.358Z,100252.55
2018-12-30T07:55:57.337Z,100249.43
2018-12-30T07:58:26.843Z,100250.73
2018-12-30T08:00:56.843Z,100249.43
2018-12-30T08:03:26.364Z,100245.44
2018-12-30T08:05:55.769Z,100250.50
2018-12-30T08:08:25.657Z,100253.58
2018-12-30T08:10:55.158Z,100250.00
2018-12-30T08:13:25.292Z,100247.53
2018-12-30T08:15:54.878Z,100250.73
2018-12-30T08:18:25.972Z,100252.28
2018-12-30T08:20:55.518Z,100255.47
2018-12-30T08:23:25.118Z,100254.11
2018-12-30T08:25:54.920Z,100253.24
2018-12-30T08:28:25.224Z,100257.04
2018-12-30T08:30:55.750Z,100251.72
2018-12-30T08:33:25.776Z,100253.75
2018-12-30T08:35:55.547Z,100248.33
2018-12-30T08:38:25.110Z,100246.27
2018-12-30T08:40:54.633Z,100240.25
2018-12-30T08:43:24.263Z,100244.65
2018-12-30T08:45:54.024Z,100240.16
2018-12-30T08:48:23.442Z,100242.12
2018-12-30T08:50:52.998Z,100238.43
2018-12-30T08:53:29.365Z,100237.75
2018-12-30T08:55:54.077Z,100232.50
2018-12-30T08:58:23.562Z,100232.59
2018-12-30T09:00:53.354Z,100230.27
2018-12-30T09:03:22.915Z,100234.05
2018-12-30T09:05:52.344Z,100229.19
2018-12-30T09:08:25.787Z,100225.84
2018-12-30T09:10:55.414Z,100230.58
2018-12-30T09:13:24.912Z,100220.02
2018-12-30T09:15:54.613Z,100215.48
2018-12-30T09:18:24.048Z,100219.10
2018-12-30T09:20:53.669Z,100215.55
2018-12-30T09:23:23.501Z,100214.06
2018-12-30T09:25:53.288Z,100214.06
2018-12-30T09:28:22.806Z,100215.38
2018-12-30T09:30:52.521Z,100209.61
2018-12-30T09:33:23.188Z,100204.68
2018-12-30T09:35:52.720Z,100198.05
2018-12-30T09:38:22.524Z,100197.92
2018-12-30T09:40:51.979Z,100197.69
2018-12-30T09:43:21.430Z,100191.75
2018-12-30T09:45:51.130Z,100188.98
2018-12-30T09:48:20.634Z,100182.06
2018-12-30T09:50:50.490Z,100185.89
2018-12-30T09:53:20.245Z,100185.50
2018-12-30T09:55:50.878Z,100187.88
2018-12-30T09:58:20.494Z,100187.50
2018-12-30T10:00:49.924Z,100184.16
2018-12-30T10:03:22.251Z,100173.05
2018-12-30T10:05:51.651Z,100176.36
2018-12-30T10:08:21.465Z,100177.37
2018-12-30T10:10:50.988Z,100174.19
2018-12-30T10:13:20.493Z,100171.06
2018-12-30T10:15:50.618Z,100167.98
2018-12-30T10:18:20.301Z,100165.12
2018-12-30T10:20:50.255Z,100169.14
2018-12-30T10:23:20.298Z,100145.42
2018-12-30T10:25:49.704Z,100155.68
2018-12-30T10:28:20.339Z,100146.84
2018-12-30T10:30:50.167Z,100153.12
2018-12-30T10:33:19.763Z,100141.94
2018-12-30T10:35:49.302Z,100138.51
2018-12-30T10:38:19.061Z,100141.08
2018-12-30T10:40:48.580Z,100136.13
2018-12-30T10:43:18.026Z,100134.41
2018-12-30T10:45:48.196Z,100130.88
2018-12-30T10:48:21.696Z,100127.14
2018-12-30T10:50:52.161Z,100123.44
2018-12-30T10:53:21.706Z,100117.74
2018-12-30T10:55:51.256Z,100113.64
2018-12-30T10:58:21.317Z,100114.04
2018-12-30T11:00:50.712Z,100111.61
2018-12-30T11:03:20.161Z,100104.51
2018-12-30T11:05:49.886Z,100105.57
2018-12-30T11:08:19.418Z,100098.13
2018-12-30T11:10:48.848Z,100088.10
2018-12-30T11:13:18.663Z,100088.80
2018-12-30T11:15:48.290Z,100083.85
2018-12-30T11:18:17.820Z,100089.31
2018-12-30T11:20:47.234Z,100085.09
2018-12-30T11:23:16.698Z,100083.86
2018-12-30T11:25:46.278Z,100081.17
2018-12-30T11:28:16.125Z,100077.09
2018-12-30T11:30:45.576Z,100075.70
2018-12-30T11:33:14.997Z,100080.32
2018-12-30T11:35:44.795Z,100073.01
2018-12-30T11:38:14.374Z,100070.14
2018-12-30T11:40:43.808Z,100073.00
2018-12-30T11:43:13.273Z,100069.28
2018-12-30T11:45:42.806Z,100061.10
2018-12-30T11:48:12.340Z,100059.36
2018-12-30T11:50:41.941Z,100064.47
2018-12-30T11:53:11.349Z,100062.08
2018-12-30T11:55:40.869Z,100061.44
2018-12-30T11:58:10.566Z,100051.52
2018-12-30T12:00:40.035Z,100060.61
2018-12-30T12:03:09.527Z,100051.41
2018-12-30T12:05:38.973Z,100062.22
2018-12-30T12:08:08.380Z,100064.93
2018-12-30T12:10:37.865Z,100067.35
2018-12-30T12:13:07.433Z,100068.14
2018-12-30T12:15:38.305Z,100070.39
2018-12-30T12:18:07.761Z,100068.75
2018-12-30T12:20:37.612Z,100063.08
2018-12-30T12:23:07.216Z,100065.25
2018-12-30T12:25:36.617Z,100063.93
2018-12-30T12:28:06.489Z,100067.25
2018-12-30T12:30:36.013Z,100064.64
2018-12-30T12:33:05.496Z,100074.16
2018-12-30T12:35:36.185Z,100079.61
2018-12-30T12:38:06.696Z,100077.80
2018-12-30T12:40:36.237Z,100074.70
2018-12-30T12:43:05.910Z,100081.34
2018-12-30T12:45:35.426Z,100084.25
2018-12-30T12:48:04.919Z,100080.14
2018-12-30T12:50:34.692Z,100071.20
2018-12-30T12:53:04.209Z,100076.97
2018-12-30T12:55:33.752Z,100081.60
2018-12-30T12:58:03.487Z,100077.35
2018-12-30T13:00:32.902Z,100079.42
2018-12-30T13:03:02.305Z,100081.27
2018-12-30T13:05:31.850Z,100076.92
2018-12-30T13:08:01.372Z,100073.62
2018-12-30T13:10:30.798Z,100075.40
2018-12-30T13:13:00.386Z,100072.37
2018-12-30T13:15:29.897Z,100073.09
2018-12-30T13:17:59.410Z,100076.39
2018-12-30T13:20:29.035Z,100084.53
2018-12-30T13:22:58.535Z,100080.88
2018-12-30T13:25:27.977Z,100076.34
2018-12-30T13:27:57.654Z,100075.44
2018-12-30T13:30:27.175Z,100075.17
2018-12-30T13:32:56.691Z,100079.95
2018-12-30T13:35:26.278Z,100077.18
2018-12-30T13:37:55.692Z,100079.29
2018-12-30T13:40:25.232Z,100082.13
2018-12-30T13:42:55.097Z,100082.76
2018-12-30T13:45:24.522Z,100089.81
2018-12-30T13:47:55.188Z,100081.37
2018-12-30T13:50:26.658Z,100087.01
2018-12-30T13:52:56.214Z,100091.53
2018-12-30T13:55:28.105Z,100083.42
2018-12-30T13:58:00.860Z,100082.80
2018-12-30T14:00:30.439Z,100081.77
2018-12-30T14:03:00.224Z,100083.69
2018-12-30T14:05:30.109Z,100087.77
2018-12-30T14:08:02.280Z,100087.01
2018-12-30T14:10:31.737Z,100091.09
2018-12-30T14:13:03.491Z,100089.27
2018-12-30T14:15:32.767Z,100085.78
2018-12-30T14:18:02.499Z,100085.51
2018-12-30T14:20:32.308Z,100089.13
2018-12-30T14:23:01.773Z,100082.17
2018-12-30T14:25:31.337Z,100087.63
2018-12-30T14:28:02.408Z,100082.49
2018-12-30T14:30:31.807Z,100088.31
2018-12-30T14:33:01.249Z,100086.39
2018-12-30T14:35:31.145Z,100084.31
2018-12-30T14:38:00.668Z,100082.72
2018-12-30T14:40:30.666Z,100082.78
2018-12-30T14:43:00.439Z,100084.49
2018-12-30T14:45:29.905Z,100088.66
2018-12-30T14:47:59.361Z,100087.22
2018-12-30T14:50:29.059Z,100090.55
2018-12-30T14:52:58.601Z,100085.03
2018-12-30T14:55:30.623Z,100092.39
2018-12-30T14:58:00.377Z,100082.77
2018-12-30T15:00:29.997Z,100087.78
2018-12-30T15:02:59.525Z,100088.70
2018-12-30T15:05:28.993Z,100097.06
2018-12-30T15:07:58.433Z,100094.64
2018-12-30T15:10:28.073Z,100091.32
2018-12-30T15:12:59.015Z,100097.45
2018-12-30T15:15:30.914Z,100097.50
2018-12-30T15:18:00.455Z,100094.22
2018-12-30T15:20:30.315Z,100098.56
2018-12-30T15:22:59.718Z,100084.37
2018-12-30T15:25:29.230Z,100102.77
2018-12-30T15:27:58.842Z,100108.55
2018-12-30T15:30:28.225Z,100112.06
2018-12-30T15:32:57.664Z,100113.44
2018-12-30T15:35:27.566Z,100110.06
2018-12-30T15:37:57.084Z,100116.39
2018-12-30T15:40:26.962Z,100116.05
2018-12-30T15:42:56.578Z,100116.16
2018-12-30T15:45:26.078Z,100115.41
2018-12-30T15:47:55.560Z,100118.96
2018-12-30T15:50:25.274Z,100122.13
2018-12-30T15:52:54.688Z,100121.67
2018-12-30T15:55:24.197Z,100120.53
2018-12-30T15:57:53.756Z,100126.59
2018-12-30T16:00:23.169Z,100127.22
2018-12-30T16:02:52.795Z,100121.12
2018-12-30T16:05:22.932Z,100128.69
2018-12-30T16:07:52.352Z,100129.60
2018-12-30T16:10:21.872Z,100130.14
2018-12-30T16:12:51.618Z,100132.48
2018-12-30T16:15:22.429Z,100134.89
2018-12-30T16:17:51.837Z,100135.40
2018-12-30T16:20:21.390Z,100131.56
2018-12-30T16:22:50.927Z,100133.45
2018-12-30T16:25:26.992Z,100131.75
2018-12-30T16:27:51.742Z,100134.38
2018-12-30T16:30:21.245Z,100140.60
2018-12-30T16:32:51.061Z,100143.80
2018-12-30T16:35:20.740Z,100140.89
2018-12-30T16:37:50.159Z,100140.48
2018-12-30T16:40:19.648Z,100148.98
2018-12-30T16:42:49.193Z,100151.78
2018-12-30T16:45:19.071Z,100148.93
2018-12-30T16:47:48.476Z,100151.61
2018-12-30T16:50:18.270Z,100149.19
2018-12-30T16:52:47.791Z,100152.95
2018-12-30T16:55:17.268Z,100143.52
2018-12-30T16:57:47.075Z,100149.05
2018-12-30T17:00:16.622Z,100154.36
2018-12-30T17:02:46.237Z,100154.26
2018-12-30T17:05:15.867Z,100160.47
2018-12-30T17:07:45.725Z,100158.87
2018-12-30T17:10:15.570Z,100161.19
2018-12-30T17:12:45.468Z,100171.75
2018-12-30T17:15:14.891Z,100162.67
2018-12-30T17:17:44.854Z,100165.23
2018-12-30T17:20:14.612Z,100166.09
2018-12-30T17:22:44.042Z,100169.53
2018-12-30T17:25:13.623Z,100174.89
2018-12-30T17:27:43.435Z,100169.78
2018-12-30T17:30:12.984Z,100176.20
2018-12-30T17:32:42.402Z,100176.66
2018-12-30T17:35:12.121Z,100180.53
2018-12-30T17:37:41.641Z,100174.44
2018-12-30T17:40:11.290Z,100171.80
2018-12-30T17:42:40.893Z,100168.33
2018-12-30T17:45:10.495Z,100174.59
2018-12-30T17:47:39.995Z,100173.32
2018-12-30T17:50:10.454Z,100171.21
2018-12-30T17:52:39.853Z,100171.55
2018-12-30T17:55:09.346Z,100175.15
2018-12-30T17:57:39.186Z,100173.67
2018-12-30T18:00:09.638Z,100180.70
2018-12-30T18:02:39.459Z,100182.41
2018-12-30T18:05:09.668Z,100185.25
2018-12-30T18:07:39.099Z,100177.47
2018-12-30T18:10:08.649Z,100179.23
2018-12-30T18:12:38.321Z,100176.66
2018-12-30T18:15:08.010Z,100174.64
2018-12-30T18:17:41.483Z,100174.84
2018-12-30T18:20:08.899Z,100173.67
2018-12-30T18:22:38.523Z,100174.48
2018-12-30T18:25:08.202Z,100176.06
2018-12-30T18:27:37.755Z,100176.16
2018-12-30T18:30:07.882Z,100178.38
2018-12-30T18:32:37.409Z,100182.36
2018-12-30T18:35:07.195Z,100179.23
2018-12-30T18:37:36.599Z,100187.47
2018-12-30T18:40:09.144Z,100183.83
2018-12-30T18:42:38.821Z,100178.22
2018-12-30T18:45:08.327Z,100175.94
2018-12-30T18:47:37.835Z,100170.23
2018-12-30T18:50:08.004Z,100173.63
2018-12-30T18:52:37.400Z,100173.22
2018-12-30T18:55:07.345Z,100174.88
2018-12-30T18:57:37.099Z,100172.55
2018-12-30T19:00:08.028Z,100176.80
2018-12-30T19:02:37.488Z,100171.09
2018-12-30T19:05:08.093Z,100175.48
2018-12-30T19:07:37.565Z,100174.72
2018-12-30T19:10:07.320Z,100179.92
2018-12-30T19:12:36.945Z,100175.13
2018-12-30T19:15:07.057Z,100183.46
2018-12-30T19:17:36.564Z,100182.20
2018-12-30T19:20:06.146Z,100184.87
2018-12-30T19:22:35.659Z,100181.23
2018-12-30T19:25:05.383Z,100183.15
2018-12-30T19:27:35.057Z,100184.72
2018-12-30T19:30:05.260Z,100186.09
2018-12-30T19:32:34.741Z,100183.96
2018-12-30T19:35:04.451Z,100189.39
2018-12-30T19:37:33.854Z,100183.10
2018-12-30T19:40:03.384Z,100193.37
2018-12-30T19:42:33.113Z,100190.75
2018-12-30T19:45:02.514Z,100181.88
2018-12-30T19:47:31.905Z,100174.95
2018-12-30T19:50:01.485Z,100181.58
2018-12-30T19:52:30.944Z,100180.36
2018-12-30T19:55:00.346Z,100176.88
2018-12-30T19:57:30.002Z,100175.11
2018-12-30T19:59:59.502Z,100165.52
2018-12-30T20:02:28.963Z,100166.73
2018-12-30T20:04:58.776Z,100168.55
2018-12-30T20:07:28.725Z,100158.05
2018-12-30T20:09:58.124Z,100162.48
2018-12-30T20:12:27.751Z,100155.92
2018-12-30T20:14:57.237Z,100157.73
2018-12-30T20:17:26.734Z,100162.16
2018-12-30T20:19:56.972Z,100172.62
2018-12-30T20:22:26.378Z,100168.27
2018-12-30T20:24:55.877Z,100169.33
2018-12-30T20:27:25.632Z,100166.75
2018-12-30T20:29:55.024Z,100164.58
2018-12-30T20:32:24.411Z,100163.27
2018-12-30T20:34:54.188Z,100174.27
2018-12-30T20:37:23.676Z,100161.15
2018-12-30T20:39:53.072Z,100164.62
2018-12-30T20:42:22.946Z,100171.13
2018-12-30T20:44:52.400Z,100152.81
2018-12-30T20:47:21.792Z,100167.16
2018-12-30T20:49:51.543Z,100152.68
2018-12-30T20:52:22.895Z,100163.72
2018-12-30T20:54:52.512Z,100159.78
2018-12-30T20:57:21.974Z,100156.76
2018-12-30T20:59:51.473Z,100159.42
2018-12-30T21:02:20.961Z,100165.08
2018-12-30T21:04:50.628Z,100157.21
2018-12-30T21:07:20.035Z,100158.52
2018-12-30T21:09:49.532Z,100155.89
2018-12-30T21:12:19.241Z,100157.26
2018-12-30T21:14:48.722Z,100156.80
2018-12-30T21:17:18.135Z,100157.75
2018-12-30T21:19:47.975Z,100163.95
2018-12-30T21:22:18.745Z,100161.33
2018-12-30T21:24:48.246Z,100161.73
2018-12-30T21:27:18.015Z,100157.80
2018-12-30T21:29:47.415Z,100162.23
2018-12-30T21:32:16.883Z,100161.73
2018-12-30T21:34:46.643Z,100165.71
2018-12-30T21:37:16.148Z,100164.09
2018-12-30T21:39:45.515Z,100166.76
2018-12-30T21:42:15.270Z,100168.16
2018-12-30T21:44:44.749Z,100164.62
2018-12-30T21:47:14.233Z,100174.62
2018-12-30T21:49:43.997Z,100169.42
2018-12-30T21:52:13.445Z,100171.19
2018-12-30T21:54:42.917Z,100172.00
2018-12-30T21:57:12.701Z,100170.33
2018-12-30T21:59:42.092Z,100168.93
2018-12-30T22:02:11.587Z,100169.88
2018-12-30T22:04:41.432Z,100162.37
2018-12-30T22:07:10.936Z,100165.85
2018-12-30T22:09:40.313Z,100165.98
2018-12-30T22:12:09.961Z,100159.88
2018-12-30T22:14:39.444Z,100164.76
2018-12-30T22:17:08.910Z,100170.37
2018-12-30T22:19:38.563Z,100171.23
2018-12-30T22:22:07.960Z,100168.56
2018-12-30T22:24:38.308Z,100172.13
2018-12-30T22:27:08.095Z,100166.44
2018-12-30T22:29:37.491Z,100168.66
2018-12-30T22:32:06.875Z,100169.88
2018-12-30T22:34:36.724Z,100162.41
2018-12-30T22:37:06.234Z,100166.84
2018-12-30T22:39:35.636Z,100169.65
2018-12-30T22:42:05.437Z,100165.39
2018-12-30T22:44:34.813Z,100170.55
2018-12-30T22:47:04.199Z,100169.65
2018-12-30T22:49:34.074Z,100172.68
2018-12-30T22:52:03.545Z,100172.72
2018-12-30T22:54:32.947Z,100169.37
2018-12-30T22:57:02.690Z,100172.90
2018-12-30T22:59:32.179Z,100175.20
2018-12-30T23:02:01.675Z,100176.59
2018-12-30T23:04:31.298Z,100173.70
2018-12-30T23:07:00.688Z,100179.02
2018-12-30T23:09:30.182Z,100174.27
2018-12-30T23:12:01.669Z,100174.73
2018-12-30T23:14:31.237Z,100173.87
2018-12-30T23:17:00.627Z,100175.22
2018-12-30T23:19:30.140Z,100178.70
2018-12-30T23:21:59.535Z,100175.67
2018-12-30T23:24:29.017Z,100177.84
2018-12-30T23:26:58.911Z,100176.98
2018-12-30T23:29:28.294Z,100174.36
2018-12-30T23:31:57.698Z,100173.95
2018-12-30T23:34:27.216Z,100169.28
2018-12-30T23:36:56.697Z,100174.48
2018-12-30T23:39:26.103Z,100177.15
2018-12-30T23:41:55.732Z,100177.19
2018-12-30T23:44:25.226Z,100174.64
2018-12-30T23:46:54.695Z,100183.37
2018-12-30T23:49:24.343Z,100188.12
2018-12-30T23:51:53.725Z,100183.70
2018-12-30T23:54:23.205Z,100187.22
2018-12-30T23:56:52.742Z,100189.02
2018-12-30T23:59:22.140Z,100185.58
